createdAt,value
2018-11-06T00:01:56.747Z,74.10
2018-11-06T00:04:30.292Z,73.58
2018-11-06T00:06:58.830Z,73.85
2018-11-06T00:09:27.437Z,74.07
2018-11-06T00:11:55.916Z,74.25
2018-11-06T00:14:24.455Z,74.39
2018-11-06T00:16:52.976Z,74.42
2018-11-06T00:19:21.478Z,74.96
2018-11-06T00:21:50.242Z,74.64
2018-11-06T00:24:18.817Z,75.33
2018-11-06T00:26:47.369Z,74.99
2018-11-06T00:29:16.001Z,75.21
2018-11-06T00:31:44.517Z,74.82
2018-11-06T00:34:13.241Z,75.43
2018-11-06T00:36:41.736Z,76.07
2018-11-06T00:39:10.751Z,75.87
2018-11-06T00:41:39.394Z,75.90
2018-11-06T00:44:08.386Z,75.71
2018-11-06T00:46:36.867Z,76.31
2018-11-06T00:49:05.602Z,76.47
2018-11-06T00:51:34.150Z,76.19
2018-11-06T00:54:02.651Z,76.66
2018-11-06T00:56:31.162Z,76.63
2018-11-06T00:58:59.769Z,76.50
2018-11-06T01:01:28.367Z,76.72
2018-11-06T01:04:03.318Z,76.81
2018-11-06T01:06:31.857Z,76.74
2018-11-06T01:09:00.367Z,76.54
2018-11-06T01:11:29.026Z,76.48
2018-11-06T01:13:57.537Z,76.88
2018-11-06T01:16:26.068Z,76.63
2018-11-06T01:18:54.603Z,77.33
2018-11-06T01:21:23.134Z,77.40
2018-11-06T01:23:51.730Z,77.39
2018-11-06T01:26:20.233Z,77.72
2018-11-06T01:28:48.784Z,77.43
2018-11-06T01:31:17.297Z,77.96
2018-11-06T01:33:45.822Z,77.89
2018-11-06T01:36:14.551Z,78.01
2018-11-06T01:38:43.031Z,77.87
2018-11-06T01:41:11.570Z,78.29
2018-11-06T01:43:40.089Z,78.14
2018-11-06T01:46:08.643Z,78.12
2018-11-06T01:48:37.251Z,78.66
2018-11-06T01:51:06.371Z,78.26
2018-11-06T01:53:34.998Z,78.73
2018-11-06T01:56:03.576Z,78.52
2018-11-06T01:58:32.127Z,78.64
2018-11-06T02:01:00.822Z,78.73
2018-11-06T02:03:29.358Z,79.01
2018-11-06T02:05:58.159Z,79.10
2018-11-06T02:08:26.734Z,79.33
2018-11-06T02:10:55.300Z,78.92
2018-11-06T02:13:23.864Z,78.96
2018-11-06T02:15:52.367Z,79.10
2018-11-06T02:18:20.935Z,79.42
2018-11-06T02:20:49.429Z,79.11
2018-11-06T02:23:18.042Z,79.15
2018-11-06T02:25:46.688Z,79.80
2018-11-06T02:28:15.219Z,79.44
2018-11-06T02:30:43.719Z,79.49
2018-11-06T02:33:12.262Z,79.40
2018-11-06T02:35:40.820Z,79.23
2018-11-06T02:38:09.387Z,79.24
2018-11-06T02:40:37.976Z,79.39
2018-11-06T02:43:06.499Z,79.56
2018-11-06T02:45:35.068Z,79.21
2018-11-06T02:48:03.572Z,79.43
2018-11-06T02:50:32.240Z,79.22
2018-11-06T02:53:00.784Z,78.89
2018-11-06T02:55:29.530Z,79.17
2018-11-06T02:57:58.056Z,79.07
2018-11-06T03:00:26.536Z,79.17
2018-11-06T03:02:55.203Z,79.58
2018-11-06T03:05:23.863Z,79.80
2018-11-06T03:07:52.863Z,79.66
2018-11-06T03:10:21.407Z,79.34
2018-11-06T03:12:49.899Z,79.28
2018-11-06T03:15:18.469Z,79.26
2018-11-06T03:17:47.081Z,79.34
2018-11-06T03:20:15.608Z,79.66
2018-11-06T03:22:44.661Z,79.73
2018-11-06T03:25:13.264Z,79.27
2018-11-06T03:27:42.078Z,79.82
2018-11-06T03:30:12.744Z,79.89
2018-11-06T03:32:41.431Z,79.59
2018-11-06T03:35:11.224Z,79.76
2018-11-06T03:37:40.024Z,79.62
2018-11-06T03:40:09.507Z,80.33
2018-11-06T03:42:38.268Z,80.75
2018-11-06T03:45:07.235Z,80.71
2018-11-06T03:47:35.844Z,80.03
2018-11-06T03:50:04.342Z,81.01
2018-11-06T03:52:32.909Z,80.68
2018-11-06T03:55:01.450Z,81.25
2018-11-06T03:57:30.022Z,81.01
2018-11-06T03:59:58.533Z,80.70
2018-11-06T04:02:27.066Z,80.16
2018-11-06T04:04:55.639Z,80.38
2018-11-06T04:07:24.177Z,80.46
2018-11-06T04:09:53.104Z,80.08
2018-11-06T04:12:21.644Z,80.47
2018-11-06T04:14:50.133Z,80.86
2018-11-06T04:17:18.807Z,80.37
2018-11-06T04:19:47.334Z,81.12
2018-11-06T04:22:15.819Z,80.75
2018-11-06T04:24:44.460Z,80.84
2018-11-06T04:27:13.005Z,80.96
2018-11-06T04:29:41.802Z,81.01
2018-11-06T04:32:10.392Z,81.02
2018-11-06T04:34:38.987Z,81.13
2018-11-06T04:37:07.504Z,81.09
2018-11-06T04:39:36.038Z,81.00
2018-11-06T04:42:04.597Z,81.22
2018-11-06T04:44:33.129Z,80.62
2018-11-06T04:47:01.857Z,81.08
2018-11-06T04:49:30.483Z,81.24
2018-11-06T04:51:59.009Z,81.41
2018-11-06T04:54:27.685Z,81.24
2018-11-06T04:56:56.261Z,80.98
2018-11-06T04:59:24.820Z,81.00
2018-11-06T05:01:53.417Z,81.32
2018-11-06T05:04:21.884Z,81.59
2018-11-06T05:06:50.563Z,81.74
2018-11-06T05:09:19.439Z,81.57
2018-11-06T05:11:48.182Z,81.58
2018-11-06T05:14:16.713Z,81.79
2018-11-06T05:16:45.239Z,81.65
2018-11-06T05:19:13.785Z,81.71
2018-11-06T05:21:42.298Z,81.75
2018-11-06T05:24:10.879Z,81.97
2018-11-06T05:26:39.388Z,81.86
2018-11-06T05:29:07.912Z,81.56
2018-11-06T05:31:36.799Z,82.23
2018-11-06T05:34:05.300Z,82.20
2018-11-06T05:36:33.988Z,82.42
2018-11-06T05:39:02.673Z,82.39
2018-11-06T05:41:31.160Z,82.07
2018-11-06T05:43:59.796Z,82.25
2018-11-06T05:46:28.452Z,81.98
2018-11-06T05:48:57.087Z,82.36
2018-11-06T05:51:25.717Z,81.90
2018-11-06T05:53:54.276Z,82.38
2018-11-06T05:56:22.901Z,82.41
2018-11-06T05:58:51.470Z,82.11
2018-11-06T06:01:20.017Z,81.87
2018-11-06T06:03:48.534Z,81.63
2018-11-06T06:06:17.034Z,82.45
2018-11-06T06:08:45.627Z,81.91
2018-11-06T06:11:14.309Z,82.21
2018-11-06T06:13:43.922Z,82.10
2018-11-06T06:16:12.780Z,82.10
2018-11-06T06:18:41.435Z,81.99
2018-11-06T06:21:10.131Z,82.19
2018-11-06T06:23:38.756Z,81.99
2018-11-06T06:26:07.432Z,81.76
2018-11-06T06:28:36.176Z,81.75
2018-11-06T06:31:05.053Z,81.65
2018-11-06T06:33:33.705Z,81.53
2018-11-06T06:36:03.001Z,81.47
2018-11-06T06:38:31.694Z,81.15
2018-11-06T06:41:00.188Z,80.96
2018-11-06T06:43:28.705Z,80.86
2018-11-06T06:45:57.524Z,80.86
2018-11-06T06:48:26.159Z,80.39
2018-11-06T06:50:54.736Z,80.46
2018-11-06T06:53:24.218Z,79.99
2018-11-06T06:55:52.919Z,79.60
2018-11-06T06:58:22.603Z,79.21
2018-11-06T07:00:51.307Z,79.34
2018-11-06T07:03:19.963Z,79.29
2018-11-06T07:05:48.692Z,79.13
2018-11-06T07:08:17.313Z,78.98
2018-11-06T07:10:45.823Z,78.81
2018-11-06T07:13:14.300Z,78.64
2018-11-06T07:15:43.520Z,78.23
2018-11-06T07:18:12.042Z,78.34
2018-11-06T07:20:40.606Z,78.13
2018-11-06T07:23:09.277Z,77.84
2018-11-06T07:25:37.857Z,77.64
2018-11-06T07:28:06.598Z,77.37
2018-11-06T07:30:35.135Z,77.14
2018-11-06T07:33:10.741Z,76.98
2018-11-06T07:35:50.062Z,76.44
2018-11-06T07:38:28.136Z,76.31
2018-11-06T07:41:06.842Z,76.21
2018-11-06T07:43:42.139Z,76.07
2018-11-06T07:46:11.310Z,76.08
2018-11-06T07:48:40.514Z,76.25
2018-11-06T07:51:09.624Z,75.42
2018-11-06T07:53:38.380Z,75.41
2018-11-06T07:56:09.596Z,75.57
2018-11-06T07:58:38.657Z,74.94
2018-11-06T08:01:08.471Z,74.04
2018-11-06T08:03:37.308Z,74.21
2018-11-06T08:06:06.787Z,74.04
2018-11-06T08:08:35.834Z,74.44
2018-11-06T08:11:04.581Z,73.52
2018-11-06T08:13:33.199Z,73.89
2018-11-06T08:16:03.104Z,73.69
2018-11-06T08:18:31.936Z,73.88
2018-11-06T08:21:00.411Z,72.81
2018-11-06T08:23:31.158Z,72.66
2018-11-06T08:25:59.725Z,73.38
2018-11-06T08:28:28.336Z,72.42
2018-11-06T08:30:57.343Z,72.87
2018-11-06T08:33:25.575Z,72.96
2018-11-06T08:35:54.389Z,72.68
2018-11-06T08:38:23.159Z,72.53
2018-11-06T08:40:51.675Z,72.24
2018-11-06T08:43:20.234Z,72.40
2018-11-06T08:45:52.125Z,72.11
2018-11-06T08:48:20.696Z,71.58
2018-11-06T08:50:49.275Z,71.53
2018-11-06T08:53:17.875Z,71.40
2018-11-06T08:55:46.421Z,71.26
2018-11-06T08:58:14.965Z,70.69
2018-11-06T09:00:43.912Z,70.71
2018-11-06T09:03:12.499Z,70.05
2018-11-06T09:05:41.058Z,70.33
2018-11-06T09:08:10.082Z,70.05
2018-11-06T09:10:38.968Z,69.91
2018-11-06T09:13:07.548Z,69.76
2018-11-06T09:15:36.215Z,69.54
2018-11-06T09:18:06.364Z,69.19
2018-11-06T09:20:35.015Z,69.82
2018-11-06T09:23:04.437Z,68.93
2018-11-06T09:25:33.029Z,68.80
2018-11-06T09:28:01.643Z,68.49
2018-11-06T09:30:30.469Z,68.20
2018-11-06T09:33:08.381Z,67.70
2018-11-06T09:35:37.367Z,67.60
2018-11-06T09:38:06.110Z,67.38
2018-11-06T09:40:34.932Z,66.94
2018-11-06T09:43:03.529Z,67.06
2018-11-06T09:45:32.059Z,66.46
2018-11-06T09:48:00.732Z,66.02
2018-11-06T09:50:29.729Z,63.39
2018-11-06T09:52:58.263Z,59.76
2018-11-06T09:55:26.754Z,51.29
2018-11-06T09:57:55.238Z,48.54
2018-11-06T10:00:24.175Z,45.66
2018-11-06T10:02:52.759Z,43.59
2018-11-06T10:05:21.260Z,46.50
2018-11-06T10:07:49.792Z,45.94
2018-11-06T10:10:19.721Z,43.39
2018-11-06T10:12:49.090Z,52.93
2018-11-06T10:15:19.054Z,55.98
2018-11-06T10:17:48.459Z,48.93
2018-11-06T10:20:18.425Z,49.51
2018-11-06T10:22:47.046Z,51.09
2018-11-06T10:25:15.804Z,51.08
2018-11-06T10:27:45.870Z,51.66
2018-11-06T10:30:16.344Z,50.59
2018-11-06T10:32:44.856Z,50.04
2018-11-06T10:35:13.627Z,51.14
2018-11-06T10:37:42.141Z,39.99
2018-11-06T10:40:13.501Z,45.90
2018-11-06T10:42:42.758Z,44.47
2018-11-06T10:45:11.286Z,48.80
2018-11-06T10:47:40.450Z,48.53
2018-11-06T10:50:11.287Z,50.41
2018-11-06T10:59:36.503Z,49.23
2018-11-06T11:02:10.484Z,49.82
2018-11-06T11:04:39.152Z,48.84
2018-11-06T11:07:07.783Z,47.21
2018-11-06T11:09:36.423Z,46.88
2018-11-06T11:12:05.220Z,44.33
2018-11-06T11:14:34.797Z,46.61
2018-11-06T11:17:05.052Z,45.42
2018-11-06T11:19:33.680Z,42.83
2018-11-06T11:22:02.855Z,46.68
2018-11-06T11:24:31.679Z,42.88
2018-11-06T11:27:00.326Z,47.66
2018-11-06T11:29:33.735Z,47.63
2018-11-06T11:32:02.615Z,48.04
2018-11-06T11:34:31.555Z,48.90
2018-11-06T11:37:00.381Z,49.63
2018-11-06T11:39:29.856Z,49.58
2018-11-06T11:41:59.409Z,48.97
2018-11-06T11:44:28.780Z,49.15
2018-11-06T11:46:57.492Z,49.25
2018-11-06T11:49:26.154Z,48.29
2018-11-06T11:51:54.944Z,49.17
2018-11-06T11:54:24.448Z,51.02
2018-11-06T11:56:53.179Z,50.20
2018-11-06T11:59:22.020Z,50.69
2018-11-06T12:01:50.667Z,51.21
2018-11-06T12:04:19.355Z,51.17
2018-11-06T12:06:48.269Z,50.38
2018-11-06T12:09:17.125Z,51.79
2018-11-06T12:11:45.753Z,53.20
2018-11-06T12:14:14.655Z,51.83
2018-11-06T12:16:43.372Z,51.74
2018-11-06T12:19:12.143Z,52.26
2018-11-06T12:21:42.001Z,51.11
2018-11-06T12:24:12.034Z,51.81
2018-11-06T12:26:40.942Z,51.47
2018-11-06T12:29:09.564Z,52.23
2018-11-06T12:31:38.512Z,52.55
2018-11-06T12:34:07.421Z,52.74
2018-11-06T12:36:37.004Z,51.41
2018-11-06T12:39:08.427Z,50.70
2018-11-06T12:41:37.093Z,51.56
2018-11-06T12:44:06.083Z,51.63
2018-11-06T12:46:35.256Z,52.06
2018-11-06T12:49:04.195Z,51.35
2018-11-06T12:51:32.978Z,50.76
2018-11-06T12:54:01.811Z,52.30
2018-11-06T12:56:30.627Z,52.89
2018-11-06T12:58:59.388Z,52.69
2018-11-06T13:01:28.750Z,53.73
2018-11-06T13:03:57.500Z,53.21
2018-11-06T13:06:26.212Z,52.96
2018-11-06T13:08:55.507Z,53.79
2018-11-06T13:11:24.351Z,53.75
2018-11-06T13:13:53.806Z,53.79
2018-11-06T13:16:22.488Z,53.54
2018-11-06T13:18:52.356Z,53.70
2018-11-06T13:21:21.002Z,53.65
2018-11-06T13:23:49.776Z,53.30
2018-11-06T13:26:18.721Z,54.00
2018-11-06T13:28:48.021Z,53.83
2018-11-06T13:31:16.760Z,54.27
2018-11-06T13:33:45.354Z,54.08
2018-11-06T13:36:14.040Z,54.79
2018-11-06T13:38:43.632Z,55.34
2018-11-06T13:41:12.542Z,55.91
2018-11-06T13:43:41.830Z,55.91
2018-11-06T13:46:10.426Z,55.86
2018-11-06T13:48:39.613Z,56.12
2018-11-06T13:51:09.192Z,55.44
2018-11-06T13:53:37.800Z,55.94
2018-11-06T13:56:06.585Z,57.25
2018-11-06T14:01:28.405Z,57.18
2018-11-06T14:03:57.445Z,57.60
2018-11-06T14:06:26.196Z,57.05
2018-11-06T14:08:55.563Z,58.03
2018-11-06T14:11:24.279Z,58.25
2018-11-06T14:13:52.954Z,59.39
2018-11-06T14:16:21.650Z,60.27
2018-11-06T14:18:56.967Z,60.30
2018-11-06T14:21:32.794Z,61.17
2018-11-06T14:24:01.817Z,61.80
2018-11-06T14:26:30.930Z,62.32
2018-11-06T15:37:09.522Z,38.49
2018-11-06T15:39:37.979Z,39.76
2018-11-06T15:42:06.426Z,39.60
2018-11-06T15:44:34.865Z,40.12
2018-11-06T15:47:03.446Z,39.81
2018-11-06T15:49:31.935Z,40.02
2018-11-06T15:52:00.394Z,39.84
2018-11-06T15:54:29.191Z,39.79
2018-11-06T15:56:57.848Z,39.39
2018-11-06T15:59:26.555Z,39.30
2018-11-06T16:01:55.019Z,39.55
2018-11-06T16:04:23.989Z,39.57
2018-11-06T16:22:55.123Z,73.07
